Time;durP1;ratioP1;P1;durP2;ratioP2;P2;SDS_P1;SDS_P2;PMS_P1;PMS_P2;Temp;Humidity;BMP_temperature;BMP_pressure;BME280_temperature;BME280_humidity;BME280_pressure;Samples;Min_cycle;Max_cycle;Signal;HPM_P1;HPM_P2
2023/07/26 00:00:17;;;;;;;5.15;3.30;;;;;;;;;;6211792;23;20036;-64
2023/07/26 00:02:43;;;;;;;5.93;3.20;;;;;;;;;;6211305;23;20455;-64
2023/07/26 00:05:09;;;;;;;4.07;3.05;;;;;;;;;;6211224;23;20012;-64
2023/07/26 00:07:35;;;;;;;4.30;3.35;;;;;;;;;;6211563;23;20012;-64
2023/07/26 00:10:01;;;;;;;7.15;3.70;;;;;;;;;;6184657;23;20439;-64
2023/07/26 00:12:27;;;;;;;6.15;2.97;;;;;;;;;;6210570;23;20004;-64
2023/07/26 00:14:53;;;;;;;7.82;3.65;;;;;;;;;;6211593;23;20044;-64
2023/07/26 00:17:19;;;;;;;8.25;3.72;;;;;;;;;;6211302;23;20019;-64
2023/07/26 00:19:45;;;;;;;8.45;3.47;;;;;;;;;;6210972;23;20095;-64
2023/07/26 00:22:12;;;;;;;10.52;3.70;;;;;;;;;;6211116;23;20214;-64
2023/07/26 00:24:38;;;;;;;6.32;3.83;;;;;;;;;;6211362;23;20015;-64
2023/07/26 00:27:04;;;;;;;5.82;3.10;;;;;;;;;;6211256;23;20013;-64
2023/07/26 00:29:30;;;;;;;8.43;3.15;;;;;;;;;;6211227;23;20100;-64
2023/07/26 00:31:56;;;;;;;6.88;3.08;;;;;;;;;;6211365;23;20030;-64
2023/07/26 00:34:22;;;;;;;6.25;3.20;;;;;;;;;;6211354;23;20391;-64
2023/07/26 00:36:48;;;;;;;7.65;3.40;;;;;;;;;;6210438;23;20020;-64
2023/07/26 00:39:15;;;;;;;7.72;4.10;;;;;;;;;;6211283;23;20188;-64
2023/07/26 00:41:41;;;;;;;6.72;3.90;;;;;;;;;;6211176;23;20101;-64
2023/07/26 00:44:07;;;;;;;8.27;3.85;;;;;;;;;;6210821;23;20091;-64
2023/07/26 00:46:33;;;;;;;6.20;3.05;;;;;;;;;;6211073;23;20068;-64
2023/07/26 00:48:59;;;;;;;7.10;3.83;;;;;;;;;;6210941;23;20020;-64
2023/07/26 00:51:26;;;;;;;7.95;3.70;;;;;;;;;;6210877;23;20023;-64
2023/07/26 00:53:52;;;;;;;4.40;3.38;;;;;;;;;;6211061;23;20051;-64
2023/07/26 00:56:18;;;;;;;8.63;3.08;;;;;;;;;;6210781;23;20017;-64
2023/07/26 00:58:45;;;;;;;6.32;4.13;;;;;;;;;;6210631;23;20467;-64
2023/07/26 01:01:11;;;;;;;4.93;3.58;;;;;;;;;;6184708;23;20412;-64
2023/07/26 01:03:37;;;;;;;8.25;3.85;;;;;;;;;;6211158;23;20044;-64
2023/07/26 01:06:03;;;;;;;6.28;4.07;;;;;;;;;;6210486;23;20008;-64
2023/07/26 01:08:35;;;;;;;7.13;3.75;;;;;;;;;;6211205;23;20016;-64
2023/07/26 01:11:24;;;;;;;7.65;4.00;;;;;;;;;;6210564;23;20016;-64
2023/07/26 01:14:05;;;;;;;5.78;3.40;;;;;;;;;;6194407;23;20447;-64
2023/07/26 01:16:31;;;;;;;9.15;3.65;;;;;;;;;;6210783;23;20241;-64
2023/07/26 01:18:57;;;;;;;7.00;3.70;;;;;;;;;;6210485;23;20095;-64
2023/07/26 01:21:23;;;;;;;5.72;4.00;;;;;;;;;;6210957;23;20009;-64
2023/07/26 01:23:49;;;;;;;6.03;3.58;;;;;;;;;;6210880;23;20494;-64
2023/07/26 01:26:15;;;;;;;6.80;3.50;;;;;;;;;;6210201;23;20020;-64
2023/07/26 01:28:41;;;;;;;6.50;3.72;;;;;;;;;;6210646;23;20070;-64
2023/07/26 01:31:08;;;;;;;8.35;3.75;;;;;;;;;;6210793;23;20358;-64
2023/07/26 01:33:35;;;;;;;6.28;3.92;;;;;;;;;;6210831;23;20099;-64
2023/07/26 01:36:01;;;;;;;7.20;3.70;;;;;;;;;;6209880;23;20027;-64
2023/07/26 01:38:28;;;;;;;6.95;3.83;;;;;;;;;;6210812;23;20023;-64
2023/07/26 01:40:55;;;;;;;5.00;3.63;;;;;;;;;;6210763;23;20373;-64
2023/07/26 01:43:21;;;;;;;7.05;4.00;;;;;;;;;;6210242;23;20211;-64
2023/07/26 01:45:47;;;;;;;6.70;3.75;;;;;;;;;;6210966;23;20042;-64
2023/07/26 01:48:13;;;;;;;8.95;4.30;;;;;;;;;;6210726;23;20048;-64
2023/07/26 01:50:39;;;;;;;5.90;3.75;;;;;;;;;;6210462;23;20333;-64
2023/07/26 01:53:05;;;;;;;5.40;3.78;;;;;;;;;;6210818;23;20331;-64
2023/07/26 01:55:31;;;;;;;5.60;3.42;;;;;;;;;;6210807;23;20106;-64
2023/07/26 01:57:57;;;;;;;6.80;3.90;;;;;;;;;;6210458;23;20023;-64
2023/07/26 02:00:23;;;;;;;8.85;4.25;;;;;;;;;;6210551;23;20013;-64
2023/07/26 02:02:49;;;;;;;7.07;4.03;;;;;;;;;;6210932;23;20020;-64
2023/07/26 02:05:16;;;;;;;6.50;3.92;;;;;;;;;;6210217;23;20063;-64
2023/07/26 02:07:42;;;;;;;8.15;4.25;;;;;;;;;;6210528;23;20290;-64
2023/07/26 02:10:08;;;;;;;10.30;4.28;;;;;;;;;;6183941;23;20335;-64
2023/07/26 02:12:34;;;;;;;7.70;3.67;;;;;;;;;;6210141;23;20020;-64
2023/07/26 02:15:00;;;;;;;5.32;3.78;;;;;;;;;;6210680;23;20016;-64
2023/07/26 02:17:26;;;;;;;9.38;3.97;;;;;;;;;;6210265;23;20017;-64
2023/07/26 02:19:52;;;;;;;9.98;4.22;;;;;;;;;;6209818;23;20023;-64
2023/07/26 02:22:18;;;;;;;4.05;3.30;;;;;;;;;;6210614;23;20372;-64
2023/07/26 02:24:44;;;;;;;5.63;3.67;;;;;;;;;;6210443;23;20055;-64
2023/07/26 02:27:10;;;;;;;5.63;3.58;;;;;;;;;;6210287;23;20063;-64
2023/07/26 02:29:36;;;;;;;4.35;3.55;;;;;;;;;;6210556;23;20023;-64
2023/07/26 02:32:02;;;;;;;6.45;3.40;;;;;;;;;;6210819;23;20021;-64
2023/07/26 02:34:28;;;;;;;4.82;3.20;;;;;;;;;;6210030;23;20012;-64
2023/07/26 02:36:54;;;;;;;7.38;3.33;;;;;;;;;;6212055;23;20487;-64
2023/07/26 02:39:20;;;;;;;6.63;3.28;;;;;;;;;;6212543;23;20060;-64
2023/07/26 02:41:46;;;;;;;4.40;3.25;;;;;;;;;;6211876;23;20009;-64
2023/07/26 02:44:12;;;;;;;8.38;3.08;;;;;;;;;;6212450;23;20026;-64
2023/07/26 02:46:38;;;;;;;3.97;3.33;;;;;;;;;;6212330;23;20565;-64
2023/07/26 02:49:04;;;;;;;5.28;3.30;;;;;;;;;;6211788;23;20016;-64
2023/07/26 02:51:30;;;;;;;6.30;3.90;;;;;;;;;;6212383;23;20083;-64
2023/07/26 02:53:56;;;;;;;5.32;3.28;;;;;;;;;;6212211;23;20023;-64
2023/07/26 02:56:22;;;;;;;6.22;3.72;;;;;;;;;;6212189;23;20375;-64
2023/07/26 02:58:48;;;;;;;5.63;3.47;;;;;;;;;;6211956;23;20321;-64
2023/07/26 03:01:14;;;;;;;6.57;3.50;;;;;;;;;;6212290;23;20055;-64
2023/07/26 03:03:42;;;;;;;5.43;3.97;;;;;;;;;;6211807;23;20082;-64
2023/07/26 03:06:08;;;;;;;4.50;3.53;;;;;;;;;;6212576;23;20034;-64
2023/07/26 03:08:34;;;;;;;6.50;3.50;;;;;;;;;;6212425;23;20383;-64
2023/07/26 03:11:00;;;;;;;6.50;4.22;;;;;;;;;;6211908;23;20070;-64
2023/07/26 03:13:26;;;;;;;6.00;4.25;;;;;;;;;;6212061;23;20012;-64
2023/07/26 03:15:54;;;;;;;5.43;3.47;;;;;;;;;;6212034;23;20023;-64
2023/07/26 03:18:20;;;;;;;5.25;3.58;;;;;;;;;;6211632;23;20012;-64
2023/07/26 03:20:46;;;;;;;7.35;3.67;;;;;;;;;;6185583;23;20020;-64
2023/07/26 03:23:12;;;;;;;6.35;4.28;;;;;;;;;;6211565;23;20087;-64
2023/07/26 03:25:38;;;;;;;6.88;3.70;;;;;;;;;;6184621;23;20436;-64
2023/07/26 03:28:04;;;;;;;6.35;3.85;;;;;;;;;;6212010;23;20025;-64
2023/07/26 03:30:30;;;;;;;9.63;3.90;;;;;;;;;;6212238;23;20028;-64
2023/07/26 03:32:56;;;;;;;7.32;3.63;;;;;;;;;;6209882;23;20020;-64
2023/07/26 03:35:22;;;;;;;7.65;3.42;;;;;;;;;;6211331;23;20143;-64
2023/07/26 03:37:48;;;;;;;5.90;4.07;;;;;;;;;;6212224;23;20013;-64
2023/07/26 03:40:14;;;;;;;6.53;3.90;;;;;;;;;;6211391;23;20035;-64
2023/07/26 03:42:40;;;;;;;5.20;3.83;;;;;;;;;;6211860;23;20435;-64
2023/07/26 03:45:07;;;;;;;5.70;4.07;;;;;;;;;;6211796;23;20067;-64
2023/07/26 03:47:33;;;;;;;4.82;3.83;;;;;;;;;;6211541;23;20435;-64
2023/07/26 03:50:02;;;;;;;6.03;3.83;;;;;;;;;;6211881;23;20012;-64
2023/07/26 03:52:28;;;;;;;6.25;3.78;;;;;;;;;;6211858;23;20074;-64
2023/07/26 03:54:54;;;;;;;6.57;4.28;;;;;;;;;;6211385;23;20070;-64
2023/07/26 03:57:20;;;;;;;5.30;4.10;;;;;;;;;;6211722;23;20024;-64
2023/07/26 03:59:46;;;;;;;7.70;4.07;;;;;;;;;;6211361;23;20025;-64
2023/07/26 04:02:12;;;;;;;6.68;4.30;;;;;;;;;;6210988;23;20127;-64
2023/07/26 04:04:38;;;;;;;6.80;4.45;;;;;;;;;;6185019;23;20040;-64
2023/07/26 04:07:04;;;;;;;6.10;4.50;;;;;;;;;;6212096;23;20040;-64
2023/07/26 04:09:30;;;;;;;7.30;3.97;;;;;;;;;;6211142;23;20025;-64
2023/07/26 04:11:57;;;;;;;8.02;4.47;;;;;;;;;;6211685;23;20063;-64
2023/07/26 04:14:23;;;;;;;7.35;4.47;;;;;;;;;;6211177;23;20023;-64
2023/07/26 04:16:50;;;;;;;10.40;4.72;;;;;;;;;;6211432;23;20016;-64
2023/07/26 04:19:16;;;;;;;7.22;4.45;;;;;;;;;;6211383;23;20028;-64
2023/07/26 04:21:42;;;;;;;6.05;4.55;;;;;;;;;;6211520;23;20013;-64
2023/07/26 04:24:08;;;;;;;7.38;4.65;;;;;;;;;;6212744;23;20052;-64
2023/07/26 04:26:34;;;;;;;5.05;4.45;;;;;;;;;;6213555;23;20063;-64
2023/07/26 04:29:00;;;;;;;6.25;4.95;;;;;;;;;;6213758;23;20020;-64
2023/07/26 04:31:26;;;;;;;7.20;4.47;;;;;;;;;;6213343;23;20051;-64
2023/07/26 04:33:52;;;;;;;8.88;5.47;;;;;;;;;;6213274;23;20016;-63
2023/07/26 04:36:18;;;;;;;8.98;5.38;;;;;;;;;;6212922;23;20023;-63
2023/07/26 04:38:44;;;;;;;8.60;5.88;;;;;;;;;;6212339;23;20043;-63
2023/07/26 04:41:10;;;;;;;10.07;5.50;;;;;;;;;;6213429;23;20016;-63
2023/07/26 04:43:36;;;;;;;7.65;5.40;;;;;;;;;;6213222;23;20016;-64
2023/07/26 04:46:02;;;;;;;8.57;6.13;;;;;;;;;;6213361;23;20448;-64
2023/07/26 04:48:28;;;;;;;8.38;5.72;;;;;;;;;;6212780;23;20020;-64
2023/07/26 04:50:54;;;;;;;7.47;5.30;;;;;;;;;;6213191;23;20012;-64
2023/07/26 04:53:20;;;;;;;9.00;5.88;;;;;;;;;;6213622;23;20017;-64
2023/07/26 04:55:50;;;;;;;7.75;5.05;;;;;;;;;;6212955;23;20016;-64
2023/07/26 04:58:17;;;;;;;6.38;4.70;;;;;;;;;;6213106;23;20084;-64
2023/07/26 05:00:43;;;;;;;7.97;4.93;;;;;;;;;;6213142;23;20017;-64
2023/07/26 05:03:12;;;;;;;7.63;5.53;;;;;;;;;;6212897;23;20388;-64
2023/07/26 05:05:38;;;;;;;10.63;5.65;;;;;;;;;;6213155;23;20015;-64
2023/07/26 05:08:05;;;;;;;7.40;5.40;;;;;;;;;;6213363;23;20020;-64
2023/07/26 05:10:31;;;;;;;9.45;5.60;;;;;;;;;;6212624;23;20016;-64
2023/07/26 05:12:58;;;;;;;8.27;5.47;;;;;;;;;;6212607;23;20017;-64
2023/07/26 05:15:24;;;;;;;9.10;5.45;;;;;;;;;;6212995;23;20023;-64
2023/07/26 05:17:50;;;;;;;6.68;5.32;;;;;;;;;;6212392;23;20020;-64
2023/07/26 05:20:17;;;;;;;7.93;5.40;;;;;;;;;;6213244;23;20013;-64
2023/07/26 05:22:43;;;;;;;7.78;5.28;;;;;;;;;;6186306;23;20058;-64
2023/07/26 05:25:09;;;;;;;6.95;4.80;;;;;;;;;;6212714;23;20020;-64
2023/07/26 05:27:35;;;;;;;7.95;5.47;;;;;;;;;;6213177;23;20009;-64
2023/07/26 05:30:01;;;;;;;7.75;4.90;;;;;;;;;;6212795;23;20031;-64
2023/07/26 05:32:27;;;;;;;6.00;5.03;;;;;;;;;;6212890;23;20012;-64
2023/07/26 05:34:57;;;;;;;10.07;5.68;;;;;;;;;;6213220;23;20087;-64
2023/07/26 05:37:23;;;;;;;7.07;5.40;;;;;;;;;;6212795;23;20059;-64
2023/07/26 05:39:50;;;;;;;9.32;5.57;;;;;;;;;;6212695;23;20025;-64
2023/07/26 05:42:16;;;;;;;8.05;5.25;;;;;;;;;;6212855;23;20339;-64
2023/07/26 05:44:42;;;;;;;9.77;5.28;;;;;;;;;;6213053;23;20285;-64
2023/07/26 05:47:11;;;;;;;8.10;5.18;;;;;;;;;;6212747;23;20463;-64
2023/07/26 05:49:41;;;;;;;7.28;4.72;;;;;;;;;;6213089;23;20023;-64
2023/07/26 05:52:07;;;;;;;7.72;5.00;;;;;;;;;;6213179;23;20369;-64
2023/07/26 05:54:33;;;;;;;6.10;4.88;;;;;;;;;;6212712;23;20020;-64
2023/07/26 05:56:59;;;;;;;6.45;4.82;;;;;;;;;;6213123;23;20443;-64
2023/07/26 05:59:25;;;;;;;7.85;5.15;;;;;;;;;;6212891;23;20021;-64
2023/07/26 06:01:51;;;;;;;9.30;5.13;;;;;;;;;;6212430;23;20038;-64
2023/07/26 06:04:17;;;;;;;6.57;4.50;;;;;;;;;;6213016;23;20531;-64
2023/07/26 06:06:43;;;;;;;8.85;4.95;;;;;;;;;;6212952;23;20012;-64
2023/07/26 06:09:09;;;;;;;7.82;4.70;;;;;;;;;;6212157;23;20017;-64
2023/07/26 06:11:35;;;;;;;9.55;5.57;;;;;;;;;;6214438;23;20139;-64
2023/07/26 06:14:01;;;;;;;8.07;5.28;;;;;;;;;;6187579;23;20052;-64
2023/07/26 06:16:27;;;;;;;7.22;5.22;;;;;;;;;;6214561;23;20016;-64
2023/07/26 06:18:53;;;;;;;10.52;5.60;;;;;;;;;;6214414;23;20013;-64
2023/07/26 06:21:19;;;;;;;7.60;5.43;;;;;;;;;;6214920;23;20023;-64
2023/07/26 06:23:46;;;;;;;7.50;5.28;;;;;;;;;;6212694;23;20016;-64
2023/07/26 06:26:12;;;;;;;11.00;5.75;;;;;;;;;;6214652;23;20012;-64
2023/07/26 06:28:39;;;;;;;6.95;5.70;;;;;;;;;;6214666;23;20012;-64
2023/07/26 06:31:05;;;;;;;6.82;5.25;;;;;;;;;;6212927;23;20118;-64
2023/07/26 06:33:31;;;;;;;9.00;5.72;;;;;;;;;;6214442;23;20110;-64
2023/07/26 06:35:57;;;;;;;11.15;5.68;;;;;;;;;;6214287;23;20070;-64
2023/07/26 06:38:23;;;;;;;10.13;5.60;;;;;;;;;;6214183;23;20021;-64
2023/07/26 06:40:50;;;;;;;7.57;5.38;;;;;;;;;;6214812;23;20050;-64
2023/07/26 06:43:16;;;;;;;8.20;4.95;;;;;;;;;;6214645;23;20079;-64
2023/07/26 06:45:46;;;;;;;9.73;5.43;;;;;;;;;;6213906;23;20017;-64
2023/07/26 06:48:12;;;;;;;8.65;5.50;;;;;;;;;;6214697;23;20465;-64
2023/07/26 06:50:39;;;;;;;8.48;5.53;;;;;;;;;;6214803;23;20013;-64
2023/07/26 06:53:05;;;;;;;8.27;5.68;;;;;;;;;;6212599;23;20092;-64
2023/07/26 06:55:32;;;;;;;8.68;5.40;;;;;;;;;;6214619;23;20425;-64
2023/07/26 06:57:58;;;;;;;9.63;5.88;;;;;;;;;;6213136;23;20024;-64
2023/07/26 07:00:24;;;;;;;7.43;5.15;;;;;;;;;;6214186;23;20015;-64
2023/07/26 07:02:55;;;;;;;8.07;5.43;;;;;;;;;;6214452;23;20384;-64
2023/07/26 07:05:21;;;;;;;8.02;5.28;;;;;;;;;;6214588;23;20013;-64
2023/07/26 07:07:47;;;;;;;12.32;5.75;;;;;;;;;;6214041;23;20067;-64
2023/07/26 07:10:13;;;;;;;9.05;6.00;;;;;;;;;;6214710;23;20016;-64
2023/07/26 07:12:39;;;;;;;7.60;6.10;;;;;;;;;;6214579;23;20013;-64
2023/07/26 07:15:05;;;;;;;8.23;5.47;;;;;;;;;;6213707;23;20023;-64
2023/07/26 07:17:32;;;;;;;7.63;5.50;;;;;;;;;;6214472;23;20016;-64
2023/07/26 07:19:58;;;;;;;9.45;5.88;;;;;;;;;;6214544;23;20099;-64
2023/07/26 07:22:25;;;;;;;10.27;6.78;;;;;;;;;;6213893;23;20009;-64
2023/07/26 07:24:52;;;;;;;10.93;6.25;;;;;;;;;;6214468;23;20075;-64
2023/07/26 07:27:18;;;;;;;10.93;7.10;;;;;;;;;;6214117;23;20063;-64
2023/07/26 07:29:45;;;;;;;15.13;7.80;;;;;;;;;;6213654;23;20016;-64
2023/07/26 07:32:11;;;;;;;10.68;7.00;;;;;;;;;;6214258;23;20083;-64
2023/07/26 07:34:37;;;;;;;4.90;3.03;;;;;;;;;;6213919;23;20021;-64
2023/07/26 07:37:03;;;;;;;5.13;3.30;;;;;;;;;;6213229;23;20062;-64
2023/07/26 07:39:30;;;;;;;5.82;3.50;;;;;;;;;;6213843;23;20016;-64
2023/07/26 07:41:56;;;;;;;8.27;3.95;;;;;;;;;;6213510;23;20016;-64
2023/07/26 07:44:22;;;;;;;11.70;4.45;;;;;;;;;;6213255;23;20371;-64
2023/07/26 07:46:48;;;;;;;6.70;4.28;;;;;;;;;;6214069;23;20059;-64
2023/07/26 07:49:14;;;;;;;9.85;4.90;;;;;;;;;;6187093;23;20021;-64
2023/07/26 07:51:40;;;;;;;12.48;5.15;;;;;;;;;;6213609;23;20388;-64
2023/07/26 07:54:06;;;;;;;10.18;5.00;;;;;;;;;;6213461;23;20047;-64
2023/07/26 07:56:32;;;;;;;7.05;4.45;;;;;;;;;;6213611;23;20020;-64
2023/07/26 07:58:58;;;;;;;9.15;4.60;;;;;;;;;;6213599;23;20016;-64
2023/07/26 08:01:24;;;;;;;12.65;5.35;;;;;;;;;;6213644;23;20008;-64
2023/07/26 08:03:50;;;;;;;10.40;6.07;;;;;;;;;;6213876;23;20229;-64
2023/07/26 08:06:17;;;;;;;9.65;7.20;;;;;;;;;;6213365;23;20070;-64
2023/07/26 08:08:43;;;;;;;9.82;7.22;;;;;;;;;;6212026;23;20016;-64
2023/07/26 08:11:09;;;;;;;14.60;9.05;;;;;;;;;;6213897;23;20340;-64
2023/07/26 08:13:35;;;;;;;13.43;8.93;;;;;;;;;;6213313;23;20380;-64
2023/07/26 08:16:02;;;;;;;12.75;8.38;;;;;;;;;;6213901;23;20758;-64
2023/07/26 08:18:28;;;;;;;13.25;8.98;;;;;;;;;;6162418;23;20375;-64
2023/07/26 08:20:54;;;;;;;12.10;8.95;;;;;;;;;;6213300;23;20020;-64
2023/07/26 08:23:20;;;;;;;14.90;10.20;;;;;;;;;;6213851;23;20008;-64
2023/07/26 08:25:46;;;;;;;14.20;8.57;;;;;;;;;;6187332;23;20019;-64
2023/07/26 08:28:12;;;;;;;10.63;7.50;;;;;;;;;;6213455;23;20012;-64
2023/07/26 08:30:38;;;;;;;12.48;7.88;;;;;;;;;;6213908;23;20020;-64
2023/07/26 08:33:04;;;;;;;11.57;8.57;;;;;;;;;;6213125;23;20339;-64
2023/07/26 08:35:30;;;;;;;16.05;7.43;;;;;;;;;;6212709;23;20027;-64
2023/07/26 08:37:56;;;;;;;9.60;6.15;;;;;;;;;;6213542;23;20020;-64
2023/07/26 08:40:22;;;;;;;7.40;6.38;;;;;;;;;;6213688;23;20016;-64
2023/07/26 08:42:49;;;;;;;9.63;6.55;;;;;;;;;;6213228;23;20012;-64
2023/07/26 08:45:16;;;;;;;8.88;5.82;;;;;;;;;;6213048;23;20016;-64
2023/07/26 08:47:43;;;;;;;9.80;6.10;;;;;;;;;;6213575;23;20335;-64
2023/07/26 08:50:09;;;;;;;7.07;4.90;;;;;;;;;;6213636;23;20017;-64
2023/07/26 08:52:35;;;;;;;6.75;4.95;;;;;;;;;;6212955;23;20013;-64
2023/07/26 08:55:01;;;;;;;8.30;3.85;;;;;;;;;;6213469;23;20474;-64
2023/07/26 08:57:27;;;;;;;5.07;2.88;;;;;;;;;;6213509;23;20040;-64
2023/07/26 08:59:53;;;;;;;4.07;2.90;;;;;;;;;;6212965;23;20353;-64
2023/07/26 09:02:20;;;;;;;3.50;2.80;;;;;;;;;;6213472;23;20019;-64
2023/07/26 09:04:47;;;;;;;4.55;2.78;;;;;;;;;;6213377;23;20436;-64
2023/07/26 09:07:14;;;;;;;4.22;3.10;;;;;;;;;;6212766;23;20032;-64
2023/07/26 09:09:40;;;;;;;5.05;2.83;;;;;;;;;;6212879;23;20020;-64
2023/07/26 09:12:06;;;;;;;5.50;2.72;;;;;;;;;;6213294;23;20579;-64
2023/07/26 09:14:33;;;;;;;4.05;2.70;;;;;;;;;;6208367;23;20020;-64
2023/07/26 09:17:00;;;;;;;4.53;3.08;;;;;;;;;;6212197;23;20079;-64
2023/07/26 09:19:32;;;;;;;3.63;3.05;;;;;;;;;;6212520;23;20330;-64
2023/07/26 09:21:59;;;;;;;4.72;3.03;;;;;;;;;;6212029;23;20051;-64
2023/07/26 09:24:33;;;;;;;4.15;3.28;;;;;;;;;;6212950;23;20014;-64
2023/07/26 09:27:12;;;;;;;4.45;2.83;;;;;;;;;;6212474;23;20020;-64
2023/07/26 09:29:39;;;;;;;4.65;3.08;;;;;;;;;;6212700;23;20062;-64
2023/07/26 09:32:05;;;;;;;3.88;2.65;;;;;;;;;;6212625;23;20551;-64
2023/07/26 09:34:32;;;;;;;5.85;3.55;;;;;;;;;;6212544;23;20016;-64
2023/07/26 09:36:58;;;;;;;5.50;3.78;;;;;;;;;;6211945;23;20027;-64
2023/07/26 09:39:25;;;;;;;6.03;3.78;;;;;;;;;;6211305;23;20025;-64
2023/07/26 09:42:03;;;;;;;6.55;4.07;;;;;;;;;;6212812;23;20020;-64
2023/07/26 09:44:30;;;;;;;5.05;3.60;;;;;;;;;;6212304;23;20066;-64
2023/07/26 09:46:56;;;;;;;5.75;4.00;;;;;;;;;;6212723;23;20044;-65
2023/07/26 09:49:24;;;;;;;6.53;3.72;;;;;;;;;;6212550;23;20023;-64
2023/07/26 09:51:54;;;;;;;5.28;3.55;;;;;;;;;;6212302;23;20020;-64
2023/07/26 09:54:21;;;;;;;5.63;3.80;;;;;;;;;;6213019;23;20599;-64
2023/07/26 09:56:47;;;;;;;6.05;3.75;;;;;;;;;;6212382;23;20159;-64
2023/07/26 09:59:14;;;;;;;5.82;4.38;;;;;;;;;;6211904;23;20660;-65
2023/07/26 10:01:41;;;;;;;8.68;4.72;;;;;;;;;;6212724;23;20020;-64
2023/07/26 10:04:10;;;;;;;5.90;4.15;;;;;;;;;;6212485;23;20424;-64
2023/07/26 10:06:36;;;;;;;6.75;4.10;;;;;;;;;;6211587;23;20051;-64
2023/07/26 10:09:03;;;;;;;8.73;4.28;;;;;;;;;;6212396;23;20365;-64
2023/07/26 10:11:29;;;;;;;8.20;3.97;;;;;;;;;;6212202;23;20024;-64
2023/07/26 10:13:58;;;;;;;5.03;3.10;;;;;;;;;;6211845;23;20028;-64
2023/07/26 10:16:24;;;;;;;6.18;3.55;;;;;;;;;;6212221;23;20016;-64
2023/07/26 10:18:52;;;;;;;4.88;3.05;;;;;;;;;;6212136;23;20023;-64
2023/07/26 10:21:21;;;;;;;6.13;3.17;;;;;;;;;;6212078;23;20009;-64
2023/07/26 10:23:47;;;;;;;5.68;2.90;;;;;;;;;;6212603;23;20013;-64
2023/07/26 10:26:14;;;;;;;4.45;3.17;;;;;;;;;;6212203;23;20566;-64
2023/07/26 10:28:40;;;;;;;4.90;2.88;;;;;;;;;;6212187;23;20092;-64
2023/07/26 10:31:06;;;;;;;3.28;2.70;;;;;;;;;;6212889;23;20016;-64
2023/07/26 10:33:33;;;;;;;8.30;3.50;;;;;;;;;;6212577;23;20019;-64
2023/07/26 10:36:04;;;;;;;4.40;3.15;;;;;;;;;;6211607;23;20333;-64
2023/07/26 10:38:30;;;;;;;7.35;4.00;;;;;;;;;;6212298;23;20042;-64
2023/07/26 10:40:56;;;;;;;5.28;3.60;;;;;;;;;;6185934;23;20013;-64
2023/07/26 10:43:22;;;;;;;5.88;3.42;;;;;;;;;;6212278;23;20009;-65
2023/07/26 10:45:51;;;;;;;5.00;3.60;;;;;;;;;;6212708;23;20048;-64
2023/07/26 10:48:23;;;;;;;5.22;3.50;;;;;;;;;;6212746;23;20019;-64
2023/07/26 10:50:49;;;;;;;;;;;;;;;;;;6212954;23;20024;-64
2023/07/26 10:53:29;;;;;;;7.93;3.53;;;;;;;;;;6212606;23;19915;-64
2023/07/26 10:56:11;;;;;;;4.30;2.88;;;;;;;;;;6213154;23;20016;-64
2023/07/26 10:58:46;;;;;;;4.13;2.67;;;;;;;;;;6214524;23;20013;-64
2023/07/26 11:01:17;;;;;;;4.07;2.42;;;;;;;;;;6214429;23;20013;-64
2023/07/26 11:03:44;;;;;;;3.77;2.60;;;;;;;;;;6214019;23;20009;-64
2023/07/26 11:06:10;;;;;;;2.65;1.75;;;;;;;;;;6214005;23;20243;-64
2023/07/26 11:08:46;;;;;;;2.03;1.55;;;;;;;;;;6214201;23;20017;-64
2023/07/26 11:11:17;;;;;;;3.92;1.40;;;;;;;;;;6213650;23;20016;-64
2023/07/26 11:13:43;;;;;;;1.42;1.00;;;;;;;;;;6213869;23;20099;-64
2023/07/26 11:16:09;;;;;;;3.13;1.30;;;;;;;;;;6214526;23;20063;-64
2023/07/26 11:18:40;;;;;;;1.20;0.95;;;;;;;;;;6213919;23;20047;-64
2023/07/26 11:21:06;;;;;;;1.55;1.20;;;;;;;;;;6214541;23;20444;-64
2023/07/26 11:23:32;;;;;;;3.78;1.10;;;;;;;;;;6214283;23;20457;-64
2023/07/26 11:25:59;;;;;;;1.90;0.98;;;;;;;;;;6213807;23;20320;-64
2023/07/26 11:28:29;;;;;;;1.73;0.90;;;;;;;;;;6214430;23;20318;-64
2023/07/26 11:30:58;;;;;;;1.42;1.00;;;;;;;;;;6214391;23;20052;-64
2023/07/26 11:33:39;;;;;;;1.58;1.08;;;;;;;;;;6213676;23;20020;-64
2023/07/26 11:36:08;;;;;;;1.80;1.10;;;;;;;;;;6213821;23;20020;-64
2023/07/26 11:38:35;;;;;;;2.42;1.17;;;;;;;;;;6214480;23;20027;-64
2023/07/26 11:41:01;;;;;;;1.60;1.17;;;;;;;;;;6213652;23;20028;-64
2023/07/26 11:43:28;;;;;;;3.50;1.75;;;;;;;;;;6214357;23;20293;-64
2023/07/26 11:45:55;;;;;;;3.38;1.80;;;;;;;;;;6213889;23;20023;-64
2023/07/26 11:48:21;;;;;;;2.58;2.05;;;;;;;;;;6213166;23;20027;-64
2023/07/26 11:50:48;;;;;;;3.50;1.88;;;;;;;;;;6187136;23;20020;-64
2023/07/26 11:53:17;;;;;;;5.60;2.53;;;;;;;;;;6214020;23;20087;-64
2023/07/26 11:55:43;;;;;;;4.60;1.92;;;;;;;;;;6186435;23;20020;-64
2023/07/26 11:58:11;;;;;;;2.83;1.75;;;;;;;;;;6213294;23;20013;-64
2023/07/26 12:00:43;;;;;;;1.92;1.50;;;;;;;;;;6213766;23;20098;-64
2023/07/26 12:03:10;;;;;;;2.75;1.63;;;;;;;;;;6213119;23;20020;-64
2023/07/26 12:05:42;;;;;;;3.42;1.90;;;;;;;;;;6187018;23;20016;-64
2023/07/26 12:08:08;;;;;;;2.05;1.52;;;;;;;;;;6213315;23;20017;-64
2023/07/26 12:10:38;;;;;;;1.58;1.23;;;;;;;;;;6213460;23;20313;-64
2023/07/26 12:13:08;;;;;;;2.03;1.23;;;;;;;;;;6213470;23;20019;-64
2023/07/26 12:15:54;;;;;;;1.60;1.30;;;;;;;;;;6213791;23;20704;-64
2023/07/26 12:18:23;;;;;;;2.28;1.27;;;;;;;;;;6212910;23;20066;-64
2023/07/26 12:20:56;;;;;;;2.25;1.35;;;;;;;;;;6213607;23;20008;-65
2023/07/26 12:23:22;;;;;;;2.22;1.30;;;;;;;;;;6213457;23;20023;-65
2023/07/26 12:25:51;;;;;;;2.30;1.40;;;;;;;;;;6213162;23;20009;-65
2023/07/26 12:28:17;;;;;;;2.33;1.30;;;;;;;;;;6213367;23;20009;-64
2023/07/26 12:30:52;;;;;;;3.47;1.60;;;;;;;;;;6213214;23;20328;-64
2023/07/26 12:33:18;;;;;;;3.35;1.52;;;;;;;;;;6213000;23;20019;-64
2023/07/26 12:35:44;;;;;;;5.63;1.75;;;;;;;;;;6213124;23;20013;-64
2023/07/26 12:38:14;;;;;;;2.28;1.83;;;;;;;;;;6213486;23;20039;-64
2023/07/26 12:40:41;;;;;;;5.32;2.30;;;;;;;;;;6213180;23;20063;-64
2023/07/26 12:43:39;;;;;;;2.72;1.80;;;;;;;;;;6213470;23;20012;-64
2023/07/26 12:46:05;;;;;;;3.30;1.80;;;;;;;;;;6147603;23;20015;-64
2023/07/26 12:48:34;;;;;;;5.32;1.83;;;;;;;;;;6213223;23;20020;-65
2023/07/26 12:51:00;;;;;;;3.85;1.75;;;;;;;;;;6213782;23;20360;-65
2023/07/26 12:53:26;;;;;;;3.75;1.73;;;;;;;;;;6213450;23;20013;-65
2023/07/26 12:55:52;;;;;;;4.25;1.60;;;;;;;;;;6212981;23;20071;-65
2023/07/26 12:58:18;;;;;;;4.57;1.83;;;;;;;;;;6213346;23;20016;-65
2023/07/26 13:00:44;;;;;;;4.50;1.95;;;;;;;;;;6212986;23;20424;-65
2023/07/26 13:03:11;;;;;;;2.92;2.08;;;;;;;;;;6186150;23;20024;-65
2023/07/26 13:05:37;;;;;;;5.95;2.00;;;;;;;;;;6213460;23;20424;-65
2023/07/26 13:08:03;;;;;;;6.63;2.03;;;;;;;;;;6213223;23;20554;-65
2023/07/26 13:10:29;;;;;;;7.95;2.13;;;;;;;;;;6212941;23;20066;-65
2023/07/26 13:12:56;;;;;;;3.47;2.03;;;;;;;;;;6213249;23;20020;-65
2023/07/26 13:15:22;;;;;;;6.00;2.20;;;;;;;;;;6213344;23;20012;-65
2023/07/26 13:17:49;;;;;;;5.43;2.35;;;;;;;;;;6212904;23;20031;-65
2023/07/26 13:20:15;;;;;;;5.82;2.55;;;;;;;;;;6212951;23;20070;-65
2023/07/26 13:22:41;;;;;;;4.75;3.03;;;;;;;;;;6213203;23;20254;-65
2023/07/26 13:25:08;;;;;;;4.75;2.40;;;;;;;;;;6212643;23;20019;-65
2023/07/26 13:27:34;;;;;;;3.72;2.00;;;;;;;;;;6213142;23;20096;-65
2023/07/26 13:30:00;;;;;;;4.18;2.28;;;;;;;;;;6213270;23;20012;-65
2023/07/26 13:32:26;;;;;;;4.85;2.28;;;;;;;;;;6212624;23;20023;-65
2023/07/26 13:34:52;;;;;;;4.95;2.00;;;;;;;;;;6212809;23;20008;-65
2023/07/26 13:37:18;;;;;;;3.42;2.30;;;;;;;;;;6212735;23;20106;-65
2023/07/26 13:39:44;;;;;;;5.25;2.65;;;;;;;;;;6212187;23;20015;-65
2023/07/26 13:42:10;;;;;;;5.47;2.80;;;;;;;;;;6213124;23;20005;-65
2023/07/26 13:44:36;;;;;;;4.68;2.55;;;;;;;;;;6213165;23;20005;-65
2023/07/26 13:47:03;;;;;;;3.80;2.53;;;;;;;;;;6212533;23;20009;-65
2023/07/26 13:49:29;;;;;;;4.13;1.95;;;;;;;;;;6212960;23;20027;-64
2023/07/26 13:51:55;;;;;;;3.40;1.98;;;;;;;;;;6212759;23;20016;-64
2023/07/26 13:54:21;;;;;;;2.95;1.45;;;;;;;;;;6212472;23;20021;-64
2023/07/26 13:56:47;;;;;;;3.28;1.67;;;;;;;;;;6213076;23;20012;-64
2023/07/26 13:59:13;;;;;;;2.63;1.70;;;;;;;;;;6212704;23;20016;-65
2023/07/26 14:01:39;;;;;;;4.57;2.05;;;;;;;;;;6211953;23;20062;-64
2023/07/26 14:04:05;;;;;;;5.00;2.00;;;;;;;;;;6212761;23;20384;-65
2023/07/26 14:06:31;;;;;;;4.70;2.22;;;;;;;;;;6212330;23;20017;-65
2023/07/26 14:08:58;;;;;;;2.95;2.10;;;;;;;;;;6211749;23;20072;-65
2023/07/26 14:11:25;;;;;;;5.70;2.13;;;;;;;;;;6210888;23;20059;-65
2023/07/26 14:13:51;;;;;;;8.25;2.30;;;;;;;;;;6210503;23;20268;-65
2023/07/26 14:16:17;;;;;;;3.92;2.05;;;;;;;;;;6210191;23;20352;-65
2023/07/26 14:18:43;;;;;;;5.10;2.15;;;;;;;;;;6210519;23;20053;-65
2023/07/26 14:21:11;;;;;;;4.20;1.70;;;;;;;;;;6210845;23;20268;-65
2023/07/26 14:23:37;;;;;;;3.40;1.92;;;;;;;;;;6209774;23;20008;-65
2023/07/26 14:26:03;;;;;;;5.95;2.28;;;;;;;;;;6183425;23;20035;-65
2023/07/26 14:28:29;;;;;;;4.18;1.92;;;;;;;;;;6210551;23;20040;-65
2023/07/26 14:30:55;;;;;;;5.18;2.08;;;;;;;;;;6210737;23;20013;-65
2023/07/26 14:33:21;;;;;;;4.57;2.13;;;;;;;;;;6212467;23;20024;-65
2023/07/26 14:35:48;;;;;;;5.00;2.50;;;;;;;;;;6212623;23;20103;-65
2023/07/26 14:38:14;;;;;;;4.60;2.28;;;;;;;;;;6212025;23;20027;-65
2023/07/26 14:40:40;;;;;;;6.30;2.50;;;;;;;;;;6212490;23;20024;-65